Time;durP1;ratioP1;P1;durP2;ratioP2;P2;SDS_P1;SDS_P2;PMS_P1;PMS_P2;Temp;Humidity;BMP_temperature;BMP_pressure;BME280_temperature;BME280_humidity;BME280_pressure;Samples;Min_cycle;Max_cycle;Signal;HPM_P1;HPM_P2
2023/11/03 00:01:57;;;;;;;20.03;18.07;;;11.10;79.00;;;;;;5035290;28;20593;-91
2023/11/03 00:04:23;;;;;;;19.03;17.33;;;11.20;78.90;;;;;;5035207;28;20655;-92
2023/11/03 00:06:49;;;;;;;18.77;17.37;;;11.10;78.80;;;;;;5035191;28;20574;-91
2023/11/03 00:09:15;;;;;;;18.83;17.33;;;11.20;78.70;;;;;;5035036;28;20203;-91
2023/11/03 00:11:48;;;;;;;18.70;17.30;;;11.20;78.80;;;;;;5038793;28;20636;-92
2023/11/03 00:14:16;;;;;;;20.57;17.70;;;11.20;78.60;;;;;;5056096;28;20283;-90
2023/11/03 00:16:44;;;;;;;19.53;17.60;;;11.20;78.80;;;;;;5038191;28;20196;-90
2023/11/03 00:19:11;;;;;;;19.00;17.40;;;11.20;78.60;;;;;;5038052;28;20203;-90
2023/11/03 00:21:37;;;;;;;19.87;18.20;;;11.20;78.70;;;;;;5038424;28;20522;-92
2023/11/03 00:24:04;;;;;;;19.43;17.87;;;11.20;78.70;;;;;;5038366;28;20179;-90
2023/11/03 00:26:29;;;;;;;19.37;17.60;;;11.20;78.40;;;;;;5060237;28;20246;-93
2023/11/03 00:28:55;;;;;;;19.00;17.43;;;11.10;78.70;;;;;;5038243;28;20188;-91
2023/11/03 00:31:22;;;;;;;19.63;17.53;;;11.20;78.60;;;;;;5038138;28;20234;-90
2023/11/03 00:33:47;;;;;;;18.73;17.17;;;11.20;78.70;;;;;;5038736;28;20187;-91
2023/11/03 00:36:14;;;;;;;19.03;17.47;;;11.10;78.80;;;;;;5037733;28;20210;-90
2023/11/03 00:38:46;;;;;;;18.57;16.97;;;11.10;78.70;;;;;;5056080;28;20172;-91
2023/11/03 00:41:14;;;;;;;19.53;17.90;;;11.20;78.60;;;;;;5037979;28;20195;-91
2023/11/03 00:43:46;;;;;;;19.17;17.47;;;11.10;78.50;;;;;;5037688;28;20179;-90
2023/11/03 00:46:13;;;;;;;18.73;17.30;;;11.20;78.20;;;;;;5037670;28;20574;-91
2023/11/03 00:48:41;;;;;;;19.40;17.63;;;11.20;77.90;;;;;;5037660;28;20180;-91
2023/11/03 00:51:08;;;;;;;19.77;18.00;;;11.20;77.90;;;;;;5037797;28;20185;-90
2023/11/03 00:53:34;;;;;;;19.93;18.03;;;11.20;78.20;;;;;;5037902;28;20639;-91
2023/11/03 00:56:00;;;;;;;19.07;17.40;;;11.20;78.40;;;;;;5037558;28;20196;-90
2023/11/03 00:58:25;;;;;;;19.30;17.70;;;11.10;78.50;;;;;;5037548;28;20172;-90
2023/11/03 01:00:53;;;;;;;19.03;17.33;;;11.00;78.90;;;;;;5055251;28;20200;-90
2023/11/03 01:03:19;;;;;;;18.43;17.03;;;10.90;79.30;;;;;;5055273;28;20170;-91
2023/11/03 01:05:45;;;;;;;19.90;18.17;;;10.80;79.40;;;;;;5037397;28;20286;-91
2023/11/03 01:08:10;;;;;;;18.73;17.30;;;10.90;79.20;;;;;;5037293;28;20180;-91
2023/11/03 01:10:36;;;;;;;19.20;17.60;;;10.90;79.10;;;;;;5037448;28;20183;-91
2023/11/03 01:13:02;;;;;;;19.30;17.50;;;10.80;79.30;;;;;;5037314;28;20175;-91
2023/11/03 01:15:29;;;;;;;19.17;17.53;;;10.80;79.40;;;;;;5055071;28;20572;-91
2023/11/03 01:17:54;;;;;;;32.23;29.77;;;10.80;79.40;;;;;;5037066;28;20168;-91
2023/11/03 01:20:27;;;;;;;34.10;31.57;;;10.80;79.60;;;;;;5037405;28;20744;-91
2023/11/03 01:22:54;;;;;;;34.63;31.87;;;10.70;79.80;;;;;;5036719;28;20259;-91
2023/11/03 01:25:21;;;;;;;18.73;17.03;;;10.80;79.90;;;;;;5054701;28;20191;-90
2023/11/03 01:27:50;;;;;;;18.17;16.43;;;10.80;79.70;;;;;;5037200;28;20204;-90
2023/11/03 01:30:17;;;;;;;17.80;16.50;;;10.70;80.00;;;;;;5054719;28;20523;-91
2023/11/03 01:32:44;;;;;;;31.97;29.73;;;10.80;79.90;;;;;;5036803;28;20267;-91
2023/11/03 01:35:09;;;;;;;35.90;33.30;;;10.70;80.20;;;;;;5036665;28;20210;-92
2023/11/03 01:37:35;;;;;;;18.10;16.47;;;10.70;80.50;;;;;;5036625;28;20176;-92
2023/11/03 01:40:07;;;;;;;18.47;16.93;;;10.70;80.40;;;;;;5036717;28;20169;-90
2023/11/03 01:42:34;;;;;;;18.47;17.03;;;10.70;80.00;;;;;;5036926;28;20222;-91
2023/11/03 01:44:59;;;;;;;31.10;28.80;;;10.60;80.10;;;;;;5036503;28;20204;-91
2023/11/03 01:47:25;;;;;;;33.57;31.17;;;10.50;80.30;;;;;;5036607;28;20175;-91
2023/11/03 01:49:50;;;;;;;18.40;17.03;;;10.50;80.20;;;;;;5054455;28;20175;-90
2023/11/03 01:52:16;;;;;;;18.57;16.87;;;10.50;80.20;;;;;;5037760;28;20555;-92
2023/11/03 01:54:42;;;;;;;22.00;20.20;;;10.30;80.50;;;;;;5036791;28;20208;-91
2023/11/03 01:57:09;;;;;;;31.17;28.70;;;10.30;80.70;;;;;;5036842;28;20179;-91
2023/11/03 01:59:34;;;;;;;35.97;33.40;;;10.30;80.90;;;;;;5036468;28;20176;-91
2023/11/03 02:02:02;;;;;;;23.30;16.53;;;10.30;81.10;;;;;;5036852;28;20226;-91
2023/11/03 02:04:27;;;;;;;17.60;15.97;;;10.20;81.00;;;;;;5036715;28;20529;-91
2023/11/03 02:06:53;;;;;;;17.97;16.27;;;10.20;81.10;;;;;;5036323;28;20198;-91
2023/11/03 02:09:19;;;;;;;28.03;26.13;;;10.20;81.00;;;;;;5036406;28;20187;-90
2023/11/03 02:11:47;;;;;;;16.90;15.60;;;10.10;81.10;;;;;;5036413;28;20267;-91
2023/11/03 02:14:13;;;;;;;18.40;16.53;;;10.00;81.30;;;;;;5053830;28;20188;-90
2023/11/03 02:16:38;;;;;;;16.20;14.90;;;10.00;81.30;;;;;;5035894;28;20694;-91
2023/11/03 02:19:08;;;;;;;17.10;15.37;;;10.10;81.40;;;;;;5035954;28;20182;-91
2023/11/03 02:21:38;;;;;;;18.57;15.30;;;10.00;81.50;;;;;;5036518;28;20176;-92
2023/11/03 02:24:05;;;;;;;16.77;15.50;;;10.00;81.50;;;;;;5036213;28;20176;-90
2023/11/03 02:26:31;;;;;;;16.33;15.13;;;10.00;81.50;;;;;;5035681;28;20196;-91
2023/11/03 02:28:56;;;;;;;16.90;15.50;;;10.00;81.60;;;;;;5035887;28;20183;-93
2023/11/03 02:31:22;;;;;;;17.60;16.20;;;10.10;81.60;;;;;;5035745;28;20248;-92
2023/11/03 02:33:48;;;;;;;16.63;15.33;;;10.10;81.50;;;;;;5035588;28;20250;-91
2023/11/03 02:36:15;;;;;;;17.30;15.50;;;10.20;81.20;;;;;;5034929;28;20184;-91
2023/11/03 02:38:40;;;;;;;17.30;15.67;;;10.10;81.50;;;;;;5036022;28;20591;-90
2023/11/03 02:41:07;;;;;;;17.43;15.73;;;10.10;81.50;;;;;;5035640;28;20271;-91
2023/11/03 02:43:33;;;;;;;16.97;15.57;;;10.00;81.50;;;;;;5037862;28;20640;-90
2023/11/03 02:45:58;;;;;;;17.70;15.90;;;10.00;81.40;;;;;;5036968;28;20207;-91
2023/11/03 02:48:24;;;;;;;16.97;15.57;;;10.00;81.40;;;;;;5035948;28;20184;-91
2023/11/03 02:50:50;;;;;;;17.03;15.23;;;10.00;81.40;;;;;;5035618;28;20226;-90
2023/11/03 02:53:15;;;;;;;16.57;15.10;;;10.00;81.60;;;;;;5035607;28;20234;-91
2023/11/03 02:55:41;;;;;;;17.30;15.90;;;10.00;81.50;;;;;;5035330;28;20299;-91
2023/11/03 02:58:07;;;;;;;17.67;15.97;;;10.10;81.30;;;;;;5035476;28;20258;-91
2023/11/03 03:00:35;;;;;;;18.20;16.23;;;10.20;81.00;;;;;;5035773;28;20623;-91
2023/11/03 03:03:02;;;;;;;17.23;15.83;;;10.10;81.00;;;;;;5036269;28;20263;-90
2023/11/03 03:05:27;;;;;;;18.13;16.47;;;10.00;80.80;;;;;;5035339;28;20199;-91
2023/11/03 03:07:54;;;;;;;17.53;15.70;;;10.10;80.90;;;;;;5036050;28;20183;-92
2023/11/03 03:10:19;;;;;;;18.00;16.30;;;10.00;80.90;;;;;;5053059;28;20172;-91
2023/11/03 03:12:47;;;;;;;16.83;15.47;;;10.00;80.70;;;;;;5053056;28;20234;-90
2023/11/03 03:15:12;;;;;;;16.83;15.47;;;9.90;80.80;;;;;;5035576;28;20203;-91
2023/11/03 03:17:38;;;;;;;17.00;15.40;;;9.90;81.20;;;;;;5035282;28;20172;-90
2023/11/03 03:20:05;;;;;;;17.60;15.80;;;9.90;80.80;;;;;;5035064;28;20219;-91
2023/11/03 03:22:30;;;;;;;17.70;15.90;;;9.90;81.00;;;;;;5035133;28;20176;-90
2023/11/03 03:24:56;;;;;;;17.50;16.10;;;9.90;81.10;;;;;;5035284;28;20562;-90
2023/11/03 03:27:21;;;;;;;17.20;15.60;;;9.90;80.80;;;;;;5034601;28;20176;-91
2023/11/03 03:29:47;;;;;;;17.20;15.80;;;9.90;80.90;;;;;;5035112;28;20187;-91
2023/11/03 03:32:12;;;;;;;17.57;15.90;;;9.90;80.60;;;;;;5035147;28;20215;-89
2023/11/03 03:34:38;;;;;;;16.97;15.50;;;9.90;80.30;;;;;;5034931;28;20280;-91
2023/11/03 03:37:03;;;;;;;16.43;15.13;;;9.90;80.50;;;;;;5035145;28;20182;-90
2023/11/03 03:39:29;;;;;;;16.70;15.40;;;9.80;80.40;;;;;;5035202;28;20176;-91
2023/11/03 03:41:55;;;;;;;16.67;15.17;;;9.80;80.70;;;;;;5035190;28;20195;-90
2023/11/03 03:44:21;;;;;;;16.63;15.23;;;9.80;80.30;;;;;;5035087;28;20192;-90
2023/11/03 03:46:46;;;;;;;16.63;15.30;;;9.70;80.50;;;;;;5036274;28;20210;-90
2023/11/03 03:49:12;;;;;;;16.63;14.97;;;9.70;80.70;;;;;;5038866;28;20180;-91
2023/11/03 03:51:39;;;;;;;16.67;15.13;;;9.70;80.60;;;;;;5056557;28;20273;-89
2023/11/03 03:54:05;;;;;;;15.80;14.60;;;9.70;80.60;;;;;;5056735;28;20203;-91
2023/11/03 03:56:31;;;;;;;19.20;15.30;;;9.70;80.80;;;;;;5038727;28;20200;-92
2023/11/03 03:58:56;;;;;;;16.47;15.07;;;9.70;80.90;;;;;;5038544;28;20192;-90
2023/11/03 04:01:22;;;;;;;16.43;15.00;;;9.70;81.00;;;;;;5038929;28;20199;-91
2023/11/03 04:03:48;;;;;;;17.60;15.90;;;9.70;80.90;;;;;;5038592;28;20172;-90
2023/11/03 04:06:14;;;;;;;17.10;15.47;;;9.80;81.00;;;;;;5038605;28;20195;-91
2023/11/03 04:08:39;;;;;;;18.23;16.63;;;9.80;80.50;;;;;;5038490;28;20180;-90
2023/11/03 04:11:05;;;;;;;17.97;16.23;;;9.90;80.10;;;;;;5038505;28;20183;-90
2023/11/03 04:13:31;;;;;;;17.77;15.93;;;10.00;79.60;;;;;;5038385;28;20172;-91
2023/11/03 04:15:57;;;;;;;18.00;16.40;;;10.10;79.20;;;;;;5038310;28;20306;-90
2023/11/03 04:18:23;;;;;;;16.43;15.17;;;10.10;78.90;;;;;;5039126;28;20222;-90
2023/11/03 04:20:48;;;;;;;15.83;14.83;;;10.10;79.30;;;;;;5038298;28;20666;-90
2023/11/03 04:23:14;;;;;;;17.63;16.20;;;10.10;79.30;;;;;;5038420;28;20269;-91
2023/11/03 04:25:40;;;;;;;17.07;15.50;;;10.00;79.90;;;;;;5038192;28;20200;-91
2023/11/03 04:28:14;;;;;;;16.30;15.00;;;9.90;80.50;;;;;;5055971;28;20179;-90
2023/11/03 04:30:40;;;;;;;16.30;14.77;;;9.90;80.40;;;;;;5038324;28;20182;-90
2023/11/03 04:33:05;;;;;;;26.47;24.43;;;9.90;80.70;;;;;;5038117;28;20179;-91
2023/11/03 04:35:31;;;;;;;28.70;26.80;;;9.90;80.40;;;;;;5037903;28;20226;-90
2023/11/03 04:37:56;;;;;;;26.37;24.07;;;9.90;80.80;;;;;;5037835;28;20246;-90
2023/11/03 04:40:22;;;;;;;25.73;23.63;;;9.80;81.00;;;;;;5038628;28;20525;-90
2023/11/03 04:42:48;;;;;;;17.87;14.90;;;9.90;81.00;;;;;;5037716;28;20217;-91
2023/11/03 04:45:16;;;;;;;16.30;14.63;;;9.80;81.50;;;;;;5037828;28;20291;-90
2023/11/03 04:47:41;;;;;;;26.80;24.43;;;9.80;81.60;;;;;;5037773;28;20179;-91
2023/11/03 04:50:10;;;;;;;28.67;26.10;;;9.70;81.70;;;;;;5037664;28;20184;-90
2023/11/03 04:52:36;;;;;;;16.50;15.03;;;9.70;81.70;;;;;;5037625;28;20203;-91
2023/11/03 04:55:02;;;;;;;15.03;13.50;;;9.70;81.90;;;;;;5037545;28;20235;-91
2023/11/03 04:57:28;;;;;;;27.00;24.77;;;9.70;81.90;;;;;;5037276;28;20172;-90
2023/11/03 04:59:53;;;;;;;28.03;25.73;;;9.60;82.30;;;;;;5037312;28;20176;-90
2023/11/03 05:02:19;;;;;;;25.90;23.83;;;9.60;82.10;;;;;;5037423;28;20643;-90
2023/11/03 05:04:45;;;;;;;14.97;13.50;;;9.70;81.70;;;;;;5059573;28;20183;-91
2023/11/03 05:07:10;;;;;;;15.10;14.00;;;9.70;81.90;;;;;;5037469;28;20556;-90
2023/11/03 05:09:37;;;;;;;28.30;26.30;;;9.70;81.60;;;;;;5037284;28;20203;-91
2023/11/03 05:12:03;;;;;;;28.67;26.30;;;9.70;81.60;;;;;;5037278;28;20191;-90
2023/11/03 05:14:30;;;;;;;16.17;14.80;;;9.70;81.50;;;;;;5037693;28;20204;-91
2023/11/03 05:16:56;;;;;;;16.30;15.00;;;9.70;81.60;;;;;;5037002;28;20200;-90
2023/11/03 05:19:21;;;;;;;19.40;18.00;;;9.70;81.40;;;;;;5037278;28;20172;-90
2023/11/03 05:21:48;;;;;;;28.50;26.27;;;9.60;81.50;;;;;;5038055;28;20207;-90
2023/11/03 05:24:14;;;;;;;23.93;21.90;;;9.60;81.40;;;;;;5037335;28;20212;-91
2023/11/03 05:26:41;;;;;;;16.77;15.07;;;9.50;81.90;;;;;;5037209;28;20207;-91
2023/11/03 05:29:07;;;;;;;17.00;15.13;;;9.50;81.70;;;;;;5036953;28;20631;-90
2023/11/03 05:31:33;;;;;;;29.83;27.67;;;9.50;81.90;;;;;;5037026;28;20211;-90
2023/11/03 05:34:01;;;;;;;29.23;27.20;;;9.50;81.80;;;;;;5036702;28;20183;-92
2023/11/03 05:36:26;;;;;;;16.43;14.70;;;9.40;81.90;;;;;;5036746;28;20234;-90
2023/11/03 05:38:52;;;;;;;15.47;14.07;;;9.50;82.20;;;;;;5036957;28;20553;-90
2023/11/03 05:41:18;;;;;;;13.80;12.67;;;9.50;82.00;;;;;;5054457;28;20560;-91
2023/11/03 05:43:43;;;;;;;26.20;23.83;;;9.50;81.90;;;;;;5036711;28;20168;-93
2023/11/03 05:46:09;;;;;;;26.60;24.70;;;9.60;81.70;;;;;;5036546;28;20200;-89
2023/11/03 05:48:34;;;;;;;15.13;13.93;;;9.50;81.70;;;;;;5054640;28;20187;-90
2023/11/03 05:51:00;;;;;;;16.63;14.33;;;9.50;81.90;;;;;;5036615;28;20172;-90
2023/11/03 05:53:25;;;;;;;26.33;23.97;;;9.50;81.60;;;;;;5036542;28;20219;-91
2023/11/03 05:55:51;;;;;;;26.53;24.50;;;9.50;81.70;;;;;;5036285;28;20246;-91
2023/11/03 05:58:17;;;;;;;25.93;23.93;;;9.50;81.90;;;;;;5036449;28;20291;-89
2023/11/03 06:00:42;;;;;;;15.07;13.67;;;9.50;82.00;;;;;;5036479;28;20183;-91
2023/11/03 06:03:08;;;;;;;15.13;13.63;;;9.50;82.00;;;;;;5036423;28;20180;-92
2023/11/03 06:05:33;;;;;;;15.97;14.47;;;9.50;81.80;;;;;;5036162;28;20196;-92
2023/11/03 06:08:00;;;;;;;15.20;13.90;;;9.60;81.80;;;;;;5036341;28;20180;-90
2023/11/03 06:10:26;;;;;;;16.30;14.30;;;9.60;81.80;;;;;;5037768;28;20179;-90
2023/11/03 06:12:51;;;;;;;16.03;13.87;;;9.60;81.20;;;;;;5037332;28;20229;-90
2023/11/03 06:15:17;;;;;;;14.90;13.80;;;9.60;81.60;;;;;;5054155;28;20204;-90
2023/11/03 06:17:42;;;;;;;17.90;14.27;;;9.60;81.30;;;;;;5040142;28;20250;-90
2023/11/03 06:20:09;;;;;;;15.77;14.13;;;9.70;81.20;;;;;;5036732;28;20625;-90
2023/11/03 06:22:34;;;;;;;15.60;14.30;;;9.70;81.00;;;;;;5036081;28;20183;-89
2023/11/03 06:25:00;;;;;;;15.63;14.30;;;9.70;81.20;;;;;;5036159;28;20703;-90
2023/11/03 06:27:25;;;;;;;14.30;13.30;;;9.70;81.00;;;;;;5036075;28;20261;-91
2023/11/03 06:29:51;;;;;;;15.10;13.70;;;9.70;80.90;;;;;;5055165;28;20656;-91
2023/11/03 06:32:16;;;;;;;15.10;13.80;;;9.70;80.60;;;;;;5035812;28;20668;-91
2023/11/03 06:34:42;;;;;;;16.53;13.87;;;9.80;80.50;;;;;;5035690;28;20212;-91
2023/11/03 06:37:08;;;;;;;15.43;14.00;;;9.80;81.00;;;;;;5035770;28;20220;-91
2023/11/03 06:39:33;;;;;;;15.53;14.00;;;9.70;81.10;;;;;;5035753;28;20605;-91
2023/11/03 06:41:59;;;;;;;14.77;13.70;;;9.80;81.00;;;;;;5035755;28;20663;-91
2023/11/03 06:44:25;;;;;;;15.33;14.00;;;9.80;81.10;;;;;;5036478;28;20176;-92
2023/11/03 06:46:50;;;;;;;15.27;13.80;;;9.80;81.10;;;;;;5035785;28;20192;-91
2023/11/03 06:49:16;;;;;;;15.07;13.63;;;9.80;81.30;;;;;;5053363;28;20176;-91
2023/11/03 06:51:43;;;;;;;15.13;13.83;;;9.80;81.00;;;;;;5035505;28;20229;-91
2023/11/03 06:54:09;;;;;;;15.13;13.70;;;9.80;81.10;;;;;;5035378;28;20206;-91
2023/11/03 06:56:36;;;;;;;15.03;13.93;;;9.80;81.40;;;;;;5035346;28;20196;-92
2023/11/03 06:59:02;;;;;;;14.93;13.63;;;9.80;81.40;;;;;;5053149;28;20172;-91
2023/11/03 07:01:27;;;;;;;15.47;14.17;;;9.80;81.40;;;;;;5035540;28;20773;-92
2023/11/03 07:03:53;;;;;;;17.97;16.43;;;9.80;80.90;;;;;;5035515;28;20180;-91
2023/11/03 07:06:20;;;;;;;23.40;21.40;;;9.80;81.20;;;;;;5035426;28;20569;-90
2023/11/03 07:08:46;;;;;;;27.87;25.67;;;9.90;81.00;;;;;;5035380;28;20187;-91
2023/11/03 07:11:12;;;;;;;24.47;22.90;;;9.90;80.90;;;;;;5035360;28;20172;-91
2023/11/03 07:13:37;;;;;;;16.43;14.77;;;9.90;80.90;;;;;;5035320;28;20172;-91
2023/11/03 07:16:04;;;;;;;15.43;14.00;;;9.80;81.10;;;;;;5035081;28;20299;-91
2023/11/03 07:18:30;;;;;;;17.30;15.60;;;9.90;81.30;;;;;;5053209;28;20168;-89
2023/11/03 07:20:56;;;;;;;16.57;15.20;;;9.80;81.30;;;;;;5035384;28;20183;-91
2023/11/03 07:23:21;;;;;;;17.40;16.00;;;9.80;81.40;;;;;;5039085;28;20186;-91
2023/11/03 07:25:50;;;;;;;15.17;13.90;;;9.90;81.40;;;;;;5039097;28;20675;-89
2023/11/03 07:28:18;;;;;;;16.60;14.93;;;9.80;81.40;;;;;;5057295;28;20198;-90
2023/11/03 07:30:44;;;;;;;26.47;24.43;;;9.90;81.30;;;;;;5039332;28;20180;-91
2023/11/03 07:33:10;;;;;;;28.20;25.97;;;9.90;81.30;;;;;;5039408;28;20249;-91
2023/11/03 07:35:36;;;;;;;16.30;15.00;;;9.90;81.10;;;;;;5039028;28;20208;-89
2023/11/03 07:38:03;;;;;;;15.37;14.23;;;9.90;81.40;;;;;;5039365;28;20171;-90
2023/11/03 07:40:29;;;;;;;16.63;15.20;;;10.00;80.90;;;;;;5039050;28;20175;-91
2023/11/03 07:42:55;;;;;;;28.13;26.07;;;10.00;81.30;;;;;;5039456;28;20199;-91
2023/11/03 07:45:23;;;;;;;27.30;25.20;;;10.00;81.00;;;;;;5038978;28;20594;-91
2023/11/03 07:47:51;;;;;;;19.93;18.00;;;10.00;81.20;;;;;;5039185;28;20242;-89
2023/11/03 07:50:19;;;;;;;15.70;14.30;;;10.00;81.10;;;;;;5039004;28;20176;-91
2023/11/03 07:52:46;;;;;;;15.00;13.93;;;10.00;81.20;;;;;;5039641;28;20259;-91
2023/11/03 07:55:15;;;;;;;27.20;25.20;;;10.10;81.10;;;;;;5056698;28;20204;-91
2023/11/03 07:57:43;;;;;;;28.43;26.20;;;10.10;80.90;;;;;;5039902;28;20226;-91
2023/11/03 08:00:10;;;;;;;15.33;13.97;;;10.10;80.90;;;;;;5039256;28;20724;-92
2023/11/03 08:02:37;;;;;;;15.50;14.17;;;10.00;81.40;;;;;;5039241;28;20168;-91
2023/11/03 08:05:04;;;;;;;15.90;14.53;;;10.00;81.60;;;;;;5038913;28;20590;-90
2023/11/03 08:07:29;;;;;;;15.90;14.73;;;10.00;81.30;;;;;;5038482;28;20226;-91
2023/11/03 08:09:55;;;;;;;16.97;15.47;;;10.10;81.30;;;;;;5056353;28;20168;-92
2023/11/03 08:12:20;;;;;;;15.87;14.47;;;10.00;81.20;;;;;;5038682;28;20176;-90
2023/11/03 08:14:46;;;;;;;16.63;14.93;;;10.00;81.60;;;;;;5038464;28;20249;-91
2023/11/03 08:17:11;;;;;;;15.87;14.50;;;10.00;81.60;;;;;;5038634;28;20178;-90
2023/11/03 08:19:41;;;;;;;15.43;14.23;;;10.00;81.90;;;;;;5038492;28;20180;-90
2023/11/03 08:22:07;;;;;;;14.80;13.80;;;10.00;81.60;;;;;;5038607;28;20172;-91
2023/11/03 08:24:33;;;;;;;14.43;13.33;;;10.10;81.20;;;;;;5038281;28;20172;-91
2023/11/03 08:26:59;;;;;;;15.00;14.00;;;10.10;81.40;;;;;;5038070;28;20628;-90
2023/11/03 08:29:24;;;;;;;15.23;14.10;;;10.10;81.30;;;;;;5038187;28;20706;-92
2023/11/03 08:31:51;;;;;;;15.50;14.20;;;10.20;80.90;;;;;;5038023;28;20176;-90
2023/11/03 08:34:16;;;;;;;15.53;14.33;;;10.30;80.50;;;;;;5036728;28;20200;-90
2023/11/03 08:36:42;;;;;;;15.30;14.03;;;10.30;80.40;;;;;;5037903;28;20196;-91
2023/11/03 08:39:08;;;;;;;15.37;14.13;;;10.30;80.70;;;;;;5037825;28;20221;-90
2023/11/03 08:41:33;;;;;;;15.23;13.97;;;10.30;80.50;;;;;;5040377;28;20194;-90
2023/11/03 08:44:00;;;;;;;16.03;14.73;;;10.30;80.20;;;;;;5038098;28;20587;-89
2023/11/03 08:46:25;;;;;;;14.37;13.27;;;10.30;80.10;;;;;;5038046;28;20219;-89
2023/11/03 08:48:51;;;;;;;15.87;14.73;;;10.40;80.30;;;;;;5055963;28;20652;-90
2023/11/03 08:51:17;;;;;;;15.87;14.73;;;10.40;80.00;;;;;;5037683;28;20648;-91
2023/11/03 08:53:43;;;;;;;15.27;14.17;;;10.40;80.10;;;;;;5037743;28;20662;-91
2023/11/03 08:56:13;;;;;;;15.37;14.43;;;10.40;80.20;;;;;;5037607;28;20208;-91
2023/11/03 08:58:39;;;;;;;15.57;14.23;;;10.40;79.80;;;;;;5037584;28;20175;-91
2023/11/03 09:01:06;;;;;;;16.57;15.20;;;10.50;80.00;;;;;;5037456;28;20640;-91
2023/11/03 09:03:32;;;;;;;15.57;14.50;;;10.50;79.80;;;;;;5037603;28;20527;-91
2023/11/03 09:05:59;;;;;;;16.23;15.07;;;10.50;80.20;;;;;;5037299;28;20230;-90
2023/11/03 09:08:25;;;;;;;17.33;15.77;;;10.60;79.40;;;;;;5037319;28;20614;-91
2023/11/03 09:10:51;;;;;;;16.97;15.67;;;10.60;80.20;;;;;;5037863;28;20187;-91
2023/11/03 09:13:16;;;;;;;16.60;15.30;;;10.60;79.70;;;;;;5038406;28;20644;-90
2023/11/03 09:15:47;;;;;;;15.80;14.50;;;10.70;79.80;;;;;;5038230;28;20226;-90
2023/11/03 09:18:12;;;;;;;15.07;13.93;;;10.70;79.60;;;;;;5059834;28;20573;-91
2023/11/03 09:20:38;;;;;;;15.67;14.57;;;10.60;79.90;;;;;;5038491;28;20219;-90
2023/11/03 09:23:05;;;;;;;15.37;14.37;;;10.60;79.80;;;;;;5037169;28;20552;-90
2023/11/03 09:25:30;;;;;;;14.77;13.70;;;10.70;79.80;;;;;;5037128;28;20211;-90
2023/11/03 09:27:56;;;;;;;16.30;15.03;;;10.60;80.50;;;;;;5038595;28;20172;-90
2023/11/03 09:30:22;;;;;;;15.67;14.53;;;10.60;80.50;;;;;;5039823;28;20172;-90
2023/11/03 09:32:48;;;;;;;15.63;14.23;;;10.70;79.60;;;;;;5037417;28;20172;-89
2023/11/03 09:35:14;;;;;;;16.23;14.73;;;10.60;79.80;;;;;;5054660;28;20692;-90
2023/11/03 09:37:40;;;;;;;16.40;15.30;;;10.60;80.10;;;;;;5054544;28;20172;-89
2023/11/03 09:40:07;;;;;;;15.43;14.13;;;10.70;79.10;;;;;;5037308;28;20172;-89
2023/11/03 09:42:33;;;;;;;15.40;14.10;;;10.60;80.30;;;;;;5036661;28;20567;-90
2023/11/03 09:44:59;;;;;;;16.03;14.60;;;10.60;80.90;;;;;;5037010;28;20261;-90
2023/11/03 09:47:26;;;;;;;14.67;13.57;;;10.60;80.30;;;;;;5037142;28;20175;-89
2023/11/03 09:49:57;;;;;;;14.93;14.00;;;10.60;80.70;;;;;;5036437;28;20175;-90
2023/11/03 09:52:23;;;;;;;14.63;13.63;;;10.50;80.60;;;;;;5054225;28;20153;-90
2023/11/03 09:54:50;;;;;;;15.17;14.00;;;10.50;80.60;;;;;;5036591;28;20196;-89
2023/11/03 09:57:18;;;;;;;15.20;14.00;;;10.60;81.00;;;;;;5036783;28;20176;-89
2023/11/03 09:59:43;;;;;;;15.57;14.40;;;10.50;80.70;;;;;;5036960;28;20180;-90
2023/11/03 10:02:18;;;;;;;15.23;14.13;;;10.50;80.80;;;;;;5037818;28;20168;-90
2023/11/03 10:04:44;;;;;;;15.20;13.93;;;10.50;80.90;;;;;;5036645;28;20172;-90
2023/11/03 10:07:11;;;;;;;14.93;13.83;;;10.50;80.90;;;;;;5037383;28;20285;-89
2023/11/03 10:09:44;;;;;;;15.63;14.10;;;10.50;80.80;;;;;;5036005;28;20329;-89
2023/11/03 10:12:18;;;;;;;15.47;14.03;;;10.60;81.00;;;;;;5035984;28;20263;-89
2023/11/03 10:14:46;;;;;;;13.90;12.90;;;10.60;80.50;;;;;;5035777;28;20196;-89
2023/11/03 10:17:14;;;;;;;14.67;13.67;;;10.60;80.70;;;;;;5035919;28;20168;-89
2023/11/03 10:19:40;;;;;;;15.33;13.93;;;10.60;81.40;;;;;;5035867;28;20171;-89
2023/11/03 10:22:08;;;;;;;25.80;23.83;;;10.60;81.00;;;;;;5035860;28;20176;-90
2023/11/03 10:24:39;;;;;;;23.57;22.00;;;10.60;80.80;;;;;;5035886;28;20253;-89
2023/11/03 10:27:05;;;;;;;24.90;22.90;;;10.60;81.70;;;;;;5036526;28;20179;-89
2023/11/03 10:29:31;;;;;;;15.33;14.17;;;10.50;80.80;;;;;;5053438;28;20172;-88
2023/11/03 10:31:56;;;;;;;15.13;13.93;;;10.50;80.70;;;;;;5053508;28;20682;-90
2023/11/03 10:34:24;;;;;;;15.23;14.17;;;10.50;81.10;;;;;;5035476;28;20762;-89
2023/11/03 10:36:51;;;;;;;24.80;23.20;;;10.50;81.30;;;;;;5035545;28;20287;-89
2023/11/03 10:39:20;;;;;;;21.63;20.30;;;10.50;81.40;;;;;;5035565;28;20199;-90
2023/11/03 10:41:46;;;;;;;14.87;13.47;;;10.50;81.00;;;;;;5035561;28;20560;-89
2023/11/03 10:44:14;;;;;;;14.80;13.80;;;10.50;81.70;;;;;;5035439;28;20175;-89
2023/11/03 10:46:51;;;;;;;24.57;22.80;;;10.40;81.60;;;;;;5035419;28;20191;-90
2023/11/03 10:49:37;;;;;;;23.40;21.70;;;10.40;81.50;;;;;;5053323;28;20238;-90
2023/11/03 10:52:28;;;;;;;16.33;12.97;;;10.30;82.20;;;;;;5035536;28;20259;-90
2023/11/03 10:55:13;;;;;;;13.77;12.80;;;10.30;82.80;;;;;;5053128;28;20687;-89
2023/11/03 10:57:40;;;;;;;23.53;21.53;;;10.30;82.30;;;;;;5034660;28;20172;-90
2023/11/03 11:00:10;;;;;;;21.47;19.27;;;10.30;83.00;;;;;;5035308;28;20573;-89
2023/11/03 11:03:00;;;;;;;11.27;10.50;;;10.20;83.30;;;;;;5035390;28;20176;-90
2023/11/03 11:05:34;;;;;;;11.93;11.03;;;10.20;84.70;;;;;;5042320;28;20701;-89
2023/11/03 11:08:04;;;;;;;19.93;18.43;;;10.20;84.50;;;;;;5035694;28;20592;-87
2023/11/03 11:10:38;;;;;;;19.83;18.27;;;10.20;84.60;;;;;;5035679;28;20609;-88
2023/11/03 11:13:13;;;;;;;13.10;11.77;;;10.30;84.10;;;;;;5053252;28;20225;-89
2023/11/03 11:15:42;;;;;;;13.40;12.13;;;10.40;84.20;;;;;;5035754;28;20215;-88
2023/11/03 11:18:15;;;;;;;24.23;21.73;;;10.40;83.80;;;;;;5035786;28;20172;-89
2023/11/03 11:20:49;;;;;;;22.70;20.90;;;10.40;84.00;;;;;;5036237;28;20226;-89
2023/11/03 11:23:16;;;;;;;13.77;12.57;;;10.40;83.80;;;;;;5036051;28;20170;-88
2023/11/03 11:25:42;;;;;;;13.40;12.10;;;10.40;83.80;;;;;;5053861;28;20560;-89
2023/11/03 11:28:35;;;;;;;21.10;19.60;;;10.40;83.80;;;;;;5035725;28;20176;-88
2023/11/03 11:31:27;;;;;;;21.53;19.83;;;10.50;84.20;;;;;;5035454;28;20210;-88
2023/11/03 11:34:17;;;;;;;14.57;13.40;;;10.50;83.90;;;;;;5036212;28;20180;-88
2023/11/03 11:36:43;;;;;;;15.83;13.60;;;10.50;83.90;;;;;;5036274;28;20310;-88
2023/11/03 11:39:15;;;;;;;22.90;21.40;;;10.50;83.50;;;;;;5036551;28;20591;-89
2023/11/03 11:41:50;;;;;;;22.73;20.77;;;10.50;83.50;;;;;;5035734;28;20188;-89
2023/11/03 11:44:23;;;;;;;23.43;21.77;;;10.50;84.00;;;;;;5035549;28;20190;-88
2023/11/03 11:46:59;;;;;;;23.20;21.17;;;10.50;83.80;;;;;;5036928;28;20196;-89
2023/11/03 11:49:27;;;;;;;14.40;12.90;;;10.50;84.10;;;;;;5055028;28;20156;-87
2023/11/03 11:51:55;;;;;;;12.67;11.70;;;10.40;84.30;;;;;;5054475;28;20203;-87
2023/11/03 11:54:21;;;;;;;21.00;19.20;;;10.40;85.00;;;;;;5036173;28;20200;-87
2023/11/03 11:56:48;;;;;;;22.67;20.77;;;10.40;85.10;;;;;;5054437;28;20192;-88
2023/11/03 11:59:25;;;;;;;12.33;11.43;;;10.50;85.70;;;;;;5036500;28;20229;-89
2023/11/03 12:01:52;;;;;;;13.43;12.33;;;10.50;85.20;;;;;;5035968;28;20160;-89
2023/11/03 12:04:18;;;;;;;18.67;17.07;;;10.50;85.10;;;;;;5053742;28;20172;-88
2023/11/03 12:06:45;;;;;;;20.23;18.73;;;10.50;85.30;;;;;;5035298;28;20285;-88
2023/11/03 12:09:12;;;;;;;20.07;18.47;;;10.40;85.30;;;;;;5057579;28;20564;-89
2023/11/03 12:11:40;;;;;;;14.53;12.23;;;10.50;86.20;;;;;;5039760;28;20176;-89
2023/11/03 12:14:05;;;;;;;11.83;10.57;;;10.40;85.30;;;;;;5040404;28;20268;-88
2023/11/03 12:16:34;;;;;;;12.37;11.20;;;10.30;85.30;;;;;;5058083;28;20215;-89
2023/11/03 12:18:59;;;;;;;14.53;11.53;;;10.40;86.10;;;;;;5041399;28;20172;-87
2023/11/03 12:21:25;;;;;;;12.53;11.50;;;10.40;86.30;;;;;;5042202;28;20254;-90
2023/11/03 12:23:55;;;;;;;13.63;12.33;;;10.50;86.30;;;;;;5042361;28;20168;-88
2023/11/03 12:26:20;;;;;;;13.07;11.90;;;10.50;86.10;;;;;;5040448;28;20202;-88
2023/11/03 12:28:46;;;;;;;15.50;11.87;;;10.50;86.20;;;;;;5041619;28;20243;-89
2023/11/03 12:31:12;;;;;;;16.37;11.93;;;10.50;86.10;;;;;;5040151;28;20267;-87